French Village, Canada
Current Conditions -  °F | °C
As of 11:26 AM on Saturday 20 Dec 2014 (Local Time) from CYHZ Reporting Station
Overcast Overcast  
Wind Chill: 22°   Ceiling: 1200
Heat Index: 32°   Visibility: 15mi
Dew Point: 28°   Wind: 15mph
Humidity: 87%   Direction: 10°N
Pressure: 30.17"   Gusts: 21mph
Location:  44.7°N, 63.88°W
Report Text: CYHZ 201526Z 01013G18KT 15SM BKN012 OVC020 00/M02 A3017 RMK SF7SC1 SLP223
Loading
Personal Weather Stations






























Interactive Weather Map New forecast layout! Learn more

10-Day Weather Forecast

Advertisements
Track Severe Weather on mobile